Time;durP1;ratioP1;P1;durP2;ratioP2;P2;SDS_P1;SDS_P2;PMS_P1;PMS_P2;Temp;Humidity;BMP_temperature;BMP_pressure;BME280_temperature;BME280_humidity;BME280_pressure;Samples;Min_cycle;Max_cycle;Signal;HPM_P1;HPM_P2
2021/01/28 00:00:24;;;;;;;;;;;19.00;35.60;;;;;;470720;253;1127;-54
2021/01/28 00:02:26;;;;;;;;;;;19.00;35.60;;;;;;466723;252;1223;-54
2021/01/28 00:04:27;;;;;;;;;;;19.00;35.50;;;;;;470734;253;1070;-54
2021/01/28 00:06:30;;;;;;;;;;;19.00;35.50;;;;;;466607;255;2153;-54
2021/01/28 00:08:31;;;;;;;;;;;19.10;35.50;;;;;;470852;253;1094;-54
2021/01/28 00:10:33;;;;;;;;;;;19.10;35.50;;;;;;466731;255;1049;-54
2021/01/28 00:12:34;;;;;;;;;;;19.10;34.20;;;;;;470757;253;1327;-54
2021/01/28 00:14:35;;;;;;;;;;;19.10;35.50;;;;;;466790;255;1062;-54
2021/01/28 00:16:36;;;;;;;;;;;19.10;35.50;;;;;;470703;253;1202;-54
2021/01/28 00:18:38;;;;;;;;;;;19.10;35.50;;;;;;466688;255;1209;-54
2021/01/28 00:20:39;;;;;;;;;;;19.10;35.50;;;;;;470761;253;1036;-53
2021/01/28 00:22:40;;;;;;;;;;;19.10;35.40;;;;;;466682;256;1074;-54
2021/01/28 00:24:42;;;;;;;;;;;19.10;35.40;;;;;;470758;253;1002;-54
2021/01/28 00:26:43;;;;;;;;;;;19.20;35.40;;;;;;466614;256;2146;-53
2021/01/28 00:28:44;;;;;;;;;;;19.10;35.40;;;;;;470878;253;961;-54
2021/01/28 00:30:45;;;;;;;;;;;19.20;35.40;;;;;;466666;255;1039;-54
2021/01/28 00:32:47;;;;;;;;;;;19.20;35.40;;;;;;470715;253;1128;-54
2021/01/28 00:34:48;;;;;;;;;;;19.20;35.40;;;;;;466659;256;1107;-53
2021/01/28 00:36:49;;;;;;;;;;;19.20;35.40;;;;;;470679;253;1068;-54
2021/01/28 00:38:50;;;;;;;;;;;19.20;35.40;;;;;;466684;255;1010;-53
2021/01/28 00:40:52;;;;;;;;;;;19.20;35.40;;;;;;470690;253;1047;-54
2021/01/28 00:42:53;;;;;;;;;;;19.20;35.30;;;;;;466854;255;1099;-54
2021/01/28 00:44:57;;;;;;;;;;;19.20;35.30;;;;;;470859;253;1086;-53
2021/01/28 00:49:20;;;;;;;;;;;19.30;35.40;;;;;;470778;253;1194;-54
2021/01/28 00:51:21;;;;;;;;;;;19.30;35.30;;;;;;466816;255;1045;-54
2021/01/28 00:53:23;;;;;;;;;;;19.30;35.30;;;;;;470850;253;983;-53
2021/01/28 00:55:24;;;;;;;;;;;19.30;35.30;;;;;;466589;256;1045;-54
2021/01/28 00:57:25;;;;;;;;;;;19.30;35.30;;;;;;470693;253;968;-54
2021/01/28 00:59:26;;;;;;;;;;;19.30;35.20;;;;;;466643;256;1006;-54
2021/01/28 01:01:28;;;;;;;;;;;19.30;35.20;;;;;;470683;253;1086;-54
2021/01/28 01:03:29;;;;;;;;;;;19.40;35.30;;;;;;466718;255;1193;-54
2021/01/28 01:05:32;;;;;;;;;;;19.30;35.20;;;;;;470703;253;989;-53
2021/01/28 01:07:31;;;;;;;;;;;19.30;35.20;;;;;;466610;255;2272;-53
2021/01/28 01:09:33;;;;;;;;;;;19.30;35.20;;;;;;470706;253;1090;-54
2021/01/28 01:11:34;;;;;;;;;;;19.40;35.20;;;;;;466584;256;1185;-54
2021/01/28 01:13:35;;;;;;;;;;;19.40;35.20;;;;;;470784;253;1085;-54
2021/01/28 01:15:37;;;;;;;;;;;19.40;35.20;;;;;;466677;255;1057;-54
2021/01/28 01:17:38;;;;;;;;;;;19.40;35.20;;;;;;470784;253;1021;-54
2021/01/28 01:19:39;;;;;;;;;;;19.40;35.20;;;;;;466622;255;1203;-54
2021/01/28 01:21:40;;;;;;;;;;;19.40;35.20;;;;;;470706;253;1042;-54
2021/01/28 01:23:42;;;;;;;;;;;19.40;35.10;;;;;;466634;255;1065;-54
2021/01/28 01:25:43;;;;;;;;;;;19.40;35.10;;;;;;470783;253;1084;-54
2021/01/28 01:27:44;;;;;;;;;;;19.40;35.20;;;;;;466704;255;2201;-54
2021/01/28 01:29:46;;;;;;;;;;;19.40;35.10;;;;;;470735;253;1351;-54
2021/01/28 01:31:47;;;;;;;;;;;19.40;35.10;;;;;;466649;256;1221;-54
2021/01/28 01:33:48;;;;;;;;;;;19.40;35.10;;;;;;470718;253;1151;-54
2021/01/28 01:35:49;;;;;;;;;;;19.40;35.10;;;;;;466742;255;1077;-54
2021/01/28 01:37:51;;;;;;;;;;;19.40;35.10;;;;;;470714;253;1137;-54
2021/01/28 01:39:52;;;;;;;;;;;19.50;35.10;;;;;;466612;255;1029;-54
2021/01/28 01:41:53;;;;;;;;;;;19.50;35.10;;;;;;470685;253;1142;-54
2021/01/28 01:43:54;;;;;;;;;;;19.50;35.10;;;;;;466699;255;1121;-54
2021/01/28 01:45:56;;;;;;;;;;;19.50;35.10;;;;;;470766;253;973;-54
2021/01/28 01:47:57;;;;;;;;;;;19.50;35.10;;;;;;466652;255;2185;-53
2021/01/28 01:49:58;;;;;;;;;;;19.50;35.10;;;;;;470776;253;1203;-53
2021/01/28 01:52:00;;;;;;;;;;;19.50;35.00;;;;;;466682;255;2170;-54
2021/01/28 01:54:01;;;;;;;;;;;19.50;35.10;;;;;;470670;253;1379;-54
2021/01/28 01:56:02;;;;;;;;;;;19.50;35.10;;;;;;466594;256;1108;-54
2021/01/28 01:58:03;;;;;;;;;;;19.50;35.10;;;;;;470707;253;1150;-54
2021/01/28 02:00:05;;;;;;;;;;;19.50;35.00;;;;;;466905;255;1045;-53
2021/01/28 02:02:06;;;;;;;;;;;19.50;35.00;;;;;;470772;253;979;-54
2021/01/28 02:04:07;;;;;;;;;;;19.50;35.10;;;;;;466738;255;1313;-54
2021/01/28 02:06:09;;;;;;;;;;;19.60;35.10;;;;;;470800;253;1052;-53
2021/01/28 02:08:12;;;;;;;;;;;19.60;35.10;;;;;;466636;254;1064;-54
2021/01/28 02:10:14;;;;;;;;;;;19.60;35.10;;;;;;470729;253;1065;-54
2021/01/28 02:12:15;;;;;;;;;;;19.50;35.00;;;;;;470711;252;1073;-54
2021/01/28 02:14:16;;;;;;;;;;;19.50;33.70;;;;;;466722;255;1063;-54
2021/01/28 02:16:17;;;;;;;;;;;19.60;35.00;;;;;;470690;253;1100;-53
2021/01/28 02:18:19;;;;;;;;;;;19.60;35.00;;;;;;466632;256;1156;-54
2021/01/28 02:20:20;;;;;;;;;;;19.60;35.00;;;;;;470782;253;1198;-54
2021/01/28 02:22:21;;;;;;;;;;;19.60;33.70;;;;;;466651;256;1091;-53
2021/01/28 02:24:23;;;;;;;;;;;19.60;34.90;;;;;;470753;253;1050;-54
2021/01/28 02:26:24;;;;;;;;;;;19.60;35.00;;;;;;466641;255;2134;-54
2021/01/28 02:28:25;;;;;;;;;;;19.60;35.00;;;;;;470639;253;1266;-54
2021/01/28 02:30:27;;;;;;;;;;;19.60;34.90;;;;;;466707;255;1042;-54
2021/01/28 02:32:28;;;;;;;;;;;19.60;34.90;;;;;;470742;253;1034;-54
2021/01/28 02:34:29;;;;;;;;;;;19.60;34.90;;;;;;466632;256;1211;-54
2021/01/28 02:36:30;;;;;;;;;;;19.60;34.90;;;;;;470645;253;1275;-54
2021/01/28 02:38:32;;;;;;;;;;;19.60;35.00;;;;;;466830;255;1103;-54
2021/01/28 02:40:33;;;;;;;;;;;19.70;35.00;;;;;;470842;253;1125;-53
2021/01/28 02:42:34;;;;;;;;;;;19.70;35.00;;;;;;466810;255;1113;-54
2021/01/28 02:44:35;;;;;;;;;;;19.70;34.90;;;;;;470781;253;1061;-53
2021/01/28 02:46:37;;;;;;;;;;;19.70;35.00;;;;;;466752;255;2197;-54
2021/01/28 02:48:38;;;;;;;;;;;19.70;35.00;;;;;;470727;253;1079;-54
2021/01/28 02:50:39;;;;;;;;;;;19.70;33.60;;;;;;466650;256;1182;-54
2021/01/28 02:52:41;;;;;;;;;;;19.70;34.90;;;;;;470733;253;1334;-54
2021/01/28 02:54:42;;;;;;;;;;;19.70;34.90;;;;;;466935;255;1063;-53
2021/01/28 02:56:43;;;;;;;;;;;19.70;34.90;;;;;;470726;249;1314;-54
2021/01/28 02:58:44;;;;;;;;;;;19.70;34.90;;;;;;466681;255;1112;-53
2021/01/28 03:00:46;;;;;;;;;;;19.70;34.90;;;;;;470708;253;1053;-54
2021/01/28 03:02:47;;;;;;;;;;;19.70;34.90;;;;;;466805;255;997;-54
2021/01/28 03:04:48;;;;;;;;;;;19.70;34.90;;;;;;470717;253;1174;-54
2021/01/28 03:06:50;;;;;;;;;;;19.70;34.90;;;;;;466637;255;2133;-53
2021/01/28 03:08:51;;;;;;;;;;;19.80;34.90;;;;;;470793;253;1111;-53
2021/01/28 03:10:52;;;;;;;;;;;19.70;34.90;;;;;;466722;255;1046;-54
2021/01/28 03:12:53;;;;;;;;;;;19.70;34.90;;;;;;470750;253;1067;-54
2021/01/28 03:14:55;;;;;;;;;;;19.70;34.90;;;;;;466630;255;1054;-54
2021/01/28 03:16:56;;;;;;;;;;;19.70;34.80;;;;;;470845;253;1147;-53
2021/01/28 03:18:57;;;;;;;;;;;19.80;34.90;;;;;;466720;255;1104;-54
2021/01/28 03:20:58;;;;;;;;;;;19.80;34.90;;;;;;470797;253;1161;-54
2021/01/28 03:23:00;;;;;;;;;;;19.80;34.90;;;;;;466674;255;993;-54
2021/01/28 03:25:01;;;;;;;;;;;19.80;34.90;;;;;;470742;253;1159;-54
2021/01/28 03:27:02;;;;;;;;;;;19.80;34.90;;;;;;466656;255;2157;-54
2021/01/28 03:29:03;;;;;;;;;;;19.80;34.90;;;;;;470797;253;1188;-54
2021/01/28 03:31:05;;;;;;;;;;;19.80;34.90;;;;;;466661;256;1065;-54
2021/01/28 03:33:06;;;;;;;;;;;19.80;34.90;;;;;;470727;253;1106;-54
2021/01/28 03:35:07;;;;;;;;;;;19.80;34.90;;;;;;466663;256;1237;-54
2021/01/28 03:37:09;;;;;;;;;;;19.80;34.90;;;;;;470743;253;1002;-54
2021/01/28 03:39:10;;;;;;;;;;;19.80;34.90;;;;;;466722;255;1060;-54
2021/01/28 03:41:11;;;;;;;;;;;19.80;34.80;;;;;;470695;253;1063;-53
2021/01/28 03:43:13;;;;;;;;;;;19.80;34.80;;;;;;466696;255;1049;-53
2021/01/28 03:45:14;;;;;;;;;;;19.80;34.80;;;;;;470850;253;1109;-54
2021/01/28 03:47:15;;;;;;;;;;;19.80;34.80;;;;;;466628;256;2193;-54
2021/01/28 03:49:17;;;;;;;;;;;19.80;34.80;;;;;;470866;253;1092;-54
2021/01/28 03:51:18;;;;;;;;;;;19.80;34.80;;;;;;466700;255;1175;-54
2021/01/28 03:53:19;;;;;;;;;;;19.80;33.50;;;;;;470749;253;1068;-54
2021/01/28 03:55:20;;;;;;;;;;;19.80;34.80;;;;;;466637;256;1113;-54
2021/01/28 03:57:22;;;;;;;;;;;19.80;34.80;;;;;;470708;253;1068;-54
2021/01/28 03:59:26;;;;;;;;;;;19.80;34.80;;;;;;466733;255;1067;-54
2021/01/28 04:01:27;;;;;;;;;;;19.90;34.80;;;;;;470863;253;1110;-54
2021/01/28 04:03:28;;;;;;;;;;;19.90;34.80;;;;;;466615;256;1083;-54
2021/01/28 04:05:30;;;;;;;;;;;19.90;34.80;;;;;;470714;253;1216;-53
2021/01/28 04:07:31;;;;;;;;;;;19.90;34.80;;;;;;466731;255;2157;-54
2021/01/28 04:09:32;;;;;;;;;;;19.90;34.80;;;;;;470836;253;1068;-53
2021/01/28 04:11:34;;;;;;;;;;;19.90;34.80;;;;;;466544;256;1360;-54
2021/01/28 04:13:35;;;;;;;;;;;19.90;34.80;;;;;;470903;249;1198;-54
2021/01/28 04:15:36;;;;;;;;;;;19.90;34.80;;;;;;466670;255;1076;-54
2021/01/28 04:17:37;;;;;;;;;;;19.90;34.80;;;;;;470883;253;1045;-54
2021/01/28 04:19:39;;;;;;;;;;;19.90;34.80;;;;;;466627;255;1097;-54
2021/01/28 04:21:40;;;;;;;;;;;19.90;34.80;;;;;;470822;253;1203;-53
2021/01/28 04:23:41;;;;;;;;;;;19.90;34.80;;;;;;466632;256;1047;-54
2021/01/28 04:25:42;;;;;;;;;;;19.90;34.80;;;;;;470703;253;1090;-54
2021/01/28 04:27:44;;;;;;;;;;;19.90;34.70;;;;;;466571;255;2150;-53
2021/01/28 04:29:45;;;;;;;;;;;19.90;34.70;;;;;;470833;246;1223;-54
2021/01/28 04:31:46;;;;;;;;;;;19.90;34.80;;;;;;466606;255;1090;-54
2021/01/28 04:33:47;;;;;;;;;;;19.90;34.80;;;;;;470676;253;1067;-54
2021/01/28 04:35:49;;;;;;;;;;;19.90;34.70;;;;;;466619;256;1215;-54
2021/01/28 04:37:50;;;;;;;;;;;19.90;34.70;;;;;;470825;253;2202;-54
2021/01/28 04:39:51;;;;;;;;;;;19.90;34.70;;;;;;466648;256;1085;-54
2021/01/28 04:41:53;;;;;;;;;;;19.90;34.70;;;;;;470681;253;1029;-54
2021/01/28 04:43:54;;;;;;;;;;;19.90;34.70;;;;;;466910;255;1056;-53
2021/01/28 04:45:55;;;;;;;;;;;20.00;34.60;;;;;;470693;253;1090;-53
2021/01/28 04:47:56;;;;;;;;;;;20.10;34.50;;;;;;466648;255;2209;-53
2021/01/28 04:49:58;;;;;;;;;;;20.00;34.40;;;;;;470824;253;1103;-54
2021/01/28 04:51:59;;;;;;;;;;;20.00;34.50;;;;;;466693;255;1182;-54
2021/01/28 04:54:00;;;;;;;;;;;20.00;34.60;;;;;;470762;253;1088;-53
2021/01/28 04:56:02;;;;;;;;;;;19.90;33.40;;;;;;466575;256;1041;-53
2021/01/28 04:58:03;;;;;;;;;;;19.90;34.80;;;;;;470665;253;1313;-53
2021/01/28 05:00:04;;;;;;;;;;;19.80;34.80;;;;;;466702;255;1109;-53
2021/01/28 05:02:05;;;;;;;;;;;19.80;34.90;;;;;;470772;253;1044;-53
2021/01/28 05:04:07;;;;;;;;;;;19.70;33.70;;;;;;466640;255;1100;-53
2021/01/28 05:06:08;;;;;;;;;;;19.70;35.00;;;;;;470623;253;1170;-53
2021/01/28 05:08:09;;;;;;;;;;;19.70;35.10;;;;;;466611;255;2174;-53
2021/01/28 05:10:10;;;;;;;;;;;19.70;35.20;;;;;;470658;253;1061;-54
2021/01/28 05:12:12;;;;;;;;;;;19.60;35.10;;;;;;466552;256;1065;-54
2021/01/28 05:14:13;;;;;;;;;;;19.60;35.20;;;;;;470761;253;1000;-54
2021/01/28 05:16:14;;;;;;;;;;;19.50;35.20;;;;;;466600;255;1049;-54
2021/01/28 05:18:16;;;;;;;;;;;19.60;35.30;;;;;;470635;253;1084;-53
2021/01/28 05:20:17;;;;;;;;;;;19.50;35.30;;;;;;466594;256;1074;-54
2021/01/28 05:22:18;;;;;;;;;;;19.50;35.40;;;;;;470540;253;1215;-54
2021/01/28 05:24:19;;;;;;;;;;;19.40;35.40;;;;;;466527;256;1082;-54
2021/01/28 05:26:21;;;;;;;;;;;19.40;35.40;;;;;;470571;253;1071;-53
2021/01/28 05:28:22;;;;;;;;;;;19.40;35.50;;;;;;466601;255;2145;-53
2021/01/28 05:30:23;;;;;;;;;;;19.40;35.50;;;;;;470720;253;1045;-54
2021/01/28 05:32:25;;;;;;;;;;;19.30;35.50;;;;;;466570;255;1050;-54
2021/01/28 05:34:26;;;;;;;;;;;19.30;35.60;;;;;;470665;253;1278;-53
2021/01/28 05:36:27;;;;;;;;;;;19.30;35.60;;;;;;466683;255;1211;-53
2021/01/28 05:38:28;;;;;;;;;;;19.30;34.30;;;;;;470673;253;1088;-53
2021/01/28 05:40:30;;;;;;;;;;;19.30;35.70;;;;;;466533;255;1051;-54
2021/01/28 05:42:31;;;;;;;;;;;19.20;35.70;;;;;;470593;253;1078;-53
2021/01/28 05:44:32;;;;;;;;;;;19.20;35.70;;;;;;466542;256;1076;-53
2021/01/28 05:46:33;;;;;;;;;;;19.20;35.70;;;;;;470579;253;1098;-53
2021/01/28 05:48:35;;;;;;;;;;;19.20;35.80;;;;;;466545;256;2197;-54
2021/01/28 05:50:36;;;;;;;;;;;19.10;35.80;;;;;;470526;253;1076;-53
2021/01/28 05:52:37;;;;;;;;;;;19.10;35.80;;;;;;466487;255;1237;-54
2021/01/28 05:54:39;;;;;;;;;;;19.10;35.90;;;;;;470576;253;1055;-54
2021/01/28 05:56:40;;;;;;;;;;;19.10;35.90;;;;;;466583;255;1032;-54
2021/01/28 05:58:41;;;;;;;;;;;19.10;35.90;;;;;;470486;253;1106;-53
2021/01/28 06:00:42;;;;;;;;;;;19.10;35.90;;;;;;466364;255;1113;-53
2021/01/28 06:02:44;;;;;;;;;;;19.00;35.90;;;;;;470386;253;1067;-53
2021/01/28 06:04:45;;;;;;;;;;;19.00;35.90;;;;;;466391;255;1100;-53
2021/01/28 06:06:46;;;;;;;;;;;19.00;35.90;;;;;;470540;253;1139;-54
2021/01/28 06:08:48;;;;;;;;;;;19.00;36.00;;;;;;466348;256;2217;-53
2021/01/28 06:10:49;;;;;;;;;;;19.00;36.00;;;;;;470164;253;1231;-53
2021/01/28 06:12:50;;;;;;;;;;;19.00;36.00;;;;;;466139;255;1090;-54
2021/01/28 06:14:51;;;;;;;;;;;19.00;36.10;;;;;;470207;253;1121;-54
2021/01/28 06:16:53;;;;;;;;;;;19.00;36.00;;;;;;466210;255;1120;-54
2021/01/28 06:18:54;;;;;;;;;;;18.90;36.00;;;;;;470335;253;1268;-53
2021/01/28 06:20:55;;;;;;;;;;;18.90;36.00;;;;;;466400;256;1062;-54
2021/01/28 06:22:58;;;;;;;;;;;18.90;36.00;;;;;;470441;253;1201;-54
2021/01/28 06:24:59;;;;;;;;;;;18.90;36.10;;;;;;466384;255;1222;-54
2021/01/28 06:27:01;;;;;;;;;;;18.90;36.10;;;;;;470354;253;1109;-53
2021/01/28 06:29:02;;;;;;;;;;;18.80;34.80;;;;;;466385;255;2202;-53
2021/01/28 06:31:03;;;;;;;;;;;18.80;36.00;;;;;;470372;253;1222;-54
2021/01/28 06:33:04;;;;;;;;;;;18.80;36.10;;;;;;466313;255;1063;-54
2021/01/28 06:35:06;;;;;;;;;;;18.80;36.10;;;;;;470309;253;1105;-53
2021/01/28 06:37:09;;;;;;;;;;;18.80;36.10;;;;;;466230;255;1119;-54
2021/01/28 06:39:09;;;;;;;;;;;18.80;36.10;;;;;;470217;253;2348;-54
2021/01/28 06:41:10;;;;;;;;;;;18.80;36.10;;;;;;466122;255;1072;-54
2021/01/28 06:43:11;;;;;;;;;;;18.80;36.20;;;;;;470165;253;1175;-53
2021/01/28 06:45:12;;;;;;;;;;;18.70;36.10;;;;;;466159;255;1048;-54
2021/01/28 06:47:14;;;;;;;;;;;18.80;36.20;;;;;;470209;253;1103;-53
2021/01/28 06:49:15;;;;;;;;;;;18.70;36.10;;;;;;466282;255;2205;-53
2021/01/28 06:51:16;;;;;;;;;;;18.80;36.20;;;;;;470378;253;1215;-53
2021/01/28 06:53:18;;;;;;;;;;;18.80;36.20;;;;;;466215;256;2114;-54
2021/01/28 06:55:19;;;;;;;;;;;18.80;36.20;;;;;;470335;253;1055;-53
2021/01/28 06:57:21;;;;;;;;;;;18.80;36.20;;;;;;466168;255;1104;-54
2021/01/28 06:59:22;;;;;;;;;;;18.70;36.20;;;;;;470302;253;1252;-54
2021/01/28 07:01:23;;;;;;;;;;;18.70;36.20;;;;;;466135;255;1107;-53
2021/01/28 07:03:24;;;;;;;;;;;18.70;34.90;;;;;;470110;253;1311;-53
2021/01/28 07:05:26;;;;;;;;;;;18.70;36.20;;;;;;465890;256;1078;-53
2021/01/28 07:07:29;;;;;;;;;;;18.70;34.90;;;;;;470034;253;1278;-53
2021/01/28 07:09:28;;;;;;;;;;;18.70;36.20;;;;;;465896;255;2178;-54
2021/01/28 07:11:29;;;;;;;;;;;18.70;36.20;;;;;;470099;253;1095;-54
2021/01/28 07:13:31;;;;;;;;;;;18.70;36.20;;;;;;466047;256;1213;-54
2021/01/28 07:15:32;;;;;;;;;;;18.70;36.20;;;;;;470229;253;1092;-54
2021/01/28 07:17:33;;;;;;;;;;;18.70;35.00;;;;;;466081;256;1308;-53
2021/01/28 07:19:35;;;;;;;;;;;18.60;36.20;;;;;;470189;253;1052;-54
2021/01/28 07:21:36;;;;;;;;;;;18.60;36.20;;;;;;466113;255;1050;-53
2021/01/28 07:23:38;;;;;;;;;;;18.60;36.20;;;;;;470234;253;1311;-53
2021/01/28 07:25:39;;;;;;;;;;;18.60;34.90;;;;;;466038;256;2187;-53
2021/01/28 07:27:40;;;;;;;;;;;18.60;36.20;;;;;;470175;253;1080;-54
2021/01/28 07:29:41;;;;;;;;;;;18.60;36.20;;;;;;466119;255;2130;-54
2021/01/28 07:31:43;;;;;;;;;;;18.60;36.20;;;;;;470126;253;1226;-54
2021/01/28 07:33:44;;;;;;;;;;;18.60;36.20;;;;;;466063;255;1125;-53
2021/01/28 07:35:45;;;;;;;;;;;18.60;36.20;;;;;;470226;253;1090;-53
2021/01/28 07:37:46;;;;;;;;;;;18.60;36.20;;;;;;466221;255;1241;-54
2021/01/28 07:39:48;;;;;;;;;;;18.60;36.20;;;;;;470267;253;1088;-53
2021/01/28 07:41:49;;;;;;;;;;;18.60;36.20;;;;;;465963;256;1075;-54
2021/01/28 07:43:50;;;;;;;;;;;18.60;36.30;;;;;;469931;253;1089;-53
2021/01/28 07:45:51;;;;;;;;;;;18.60;36.20;;;;;;465947;256;1146;-53
2021/01/28 07:47:53;;;;;;;;;;;18.60;36.20;;;;;;470053;253;1113;-53
2021/01/28 07:49:54;;;;;;;;;;;18.60;36.20;;;;;;466014;255;2134;-54
2021/01/28 07:51:55;;;;;;;;;;;18.60;36.20;;;;;;469880;253;1171;-54
2021/01/28 07:53:56;;;;;;;;;;;18.60;35.00;;;;;;465736;256;1196;-53
2021/01/28 07:55:58;;;;;;;;;;;18.60;36.30;;;;;;469777;253;1239;-54
2021/01/28 07:57:59;;;;;;;;;;;18.60;36.30;;;;;;465649;255;1112;-53
2021/01/28 08:00:00;;;;;;;;;;;18.60;36.30;;;;;;469802;253;1180;-53
2021/01/28 08:02:02;;;;;;;;;;;18.60;36.30;;;;;;465705;256;1256;-53
2021/01/28 08:04:03;;;;;;;;;;;18.60;36.30;;;;;;469763;253;1061;-54
2021/01/28 08:06:04;;;;;;;;;;;18.50;36.20;;;;;;465779;255;1065;-54
2021/01/28 08:08:06;;;;;;;;;;;18.60;36.30;;;;;;469969;253;1203;-53
2021/01/28 08:10:07;;;;;;;;;;;18.60;36.30;;;;;;465974;255;2134;-53
2021/01/28 08:12:09;;;;;;;;;;;18.50;36.20;;;;;;470086;253;1178;-53
2021/01/28 08:14:10;;;;;;;;;;;18.50;34.90;;;;;;465967;256;1152;-53
2021/01/28 08:16:11;;;;;;;;;;;18.50;36.30;;;;;;469776;253;1379;-53
2021/01/28 08:18:12;;;;;;;;;;;18.50;36.30;;;;;;465932;256;1292;-53
2021/01/28 08:20:14;;;;;;;;;;;18.50;36.30;;;;;;470111;253;1260;-53
2021/01/28 08:22:15;;;;;;;;;;;18.50;36.30;;;;;;465922;255;1159;-54
2021/01/28 08:24:16;;;;;;;;;;;18.60;36.30;;;;;;470047;253;1222;-53
2021/01/28 08:26:18;;;;;;;;;;;18.50;36.30;;;;;;465912;256;1146;-53
2021/01/28 08:28:19;;;;;;;;;;;18.60;36.30;;;;;;470007;253;2211;-53
2021/01/28 08:30:21;;;;;;;;;;;18.50;35.00;;;;;;465940;256;1172;-53
2021/01/28 08:32:22;;;;;;;;;;;18.50;36.30;;;;;;470073;253;1074;-54
2021/01/28 08:34:24;;;;;;;;;;;18.50;36.20;;;;;;465922;255;1096;-54
2021/01/28 08:36:25;;;;;;;;;;;18.50;36.20;;;;;;469838;253;1239;-53
2021/01/28 08:38:27;;;;;;;;;;;18.60;36.30;;;;;;465842;255;1185;-54
2021/01/28 08:40:28;;;;;;;;;;;18.50;36.20;;;;;;470014;253;1081;-54
2021/01/28 08:42:29;;;;;;;;;;;18.60;36.30;;;;;;465861;255;1220;-54
2021/01/28 08:44:30;;;;;;;;;;;18.60;36.30;;;;;;470075;253;1077;-53
2021/01/28 08:46:32;;;;;;;;;;;18.50;36.20;;;;;;465944;256;1141;-53
2021/01/28 08:48:33;;;;;;;;;;;18.50;34.90;;;;;;470020;253;2191;-53
2021/01/28 08:50:34;;;;;;;;;;;18.50;36.20;;;;;;465889;255;1077;-53
2021/01/28 08:52:36;;;;;;;;;;;18.60;36.20;;;;;;469991;253;1091;-54
2021/01/28 08:54:37;;;;;;;;;;;18.60;36.20;;;;;;465984;255;1297;-53
2021/01/28 08:56:39;;;;;;;;;;;18.60;36.20;;;;;;470010;253;1223;-53
2021/01/28 08:58:41;;;;;;;;;;;18.60;36.20;;;;;;465907;255;1303;-53
2021/01/28 09:00:42;;;;;;;;;;;18.60;36.20;;;;;;469925;253;1109;-53
2021/01/28 09:02:44;;;;;;;;;;;18.60;36.20;;;;;;465842;255;1187;-53
2021/01/28 09:04:45;;;;;;;;;;;18.60;36.20;;;;;;470025;253;1145;-53
2021/01/28 09:06:46;;;;;;;;;;;18.60;36.20;;;;;;465927;255;1069;-53
2021/01/28 09:08:48;;;;;;;;;;;18.60;34.90;;;;;;469985;253;2198;-54
2021/01/28 09:10:49;;;;;;;;;;;18.60;36.20;;;;;;466004;255;1091;-53
2021/01/28 09:12:50;;;;;;;;;;;18.60;36.20;;;;;;470010;253;1084;-53
2021/01/28 09:14:52;;;;;;;;;;;18.60;36.20;;;;;;466021;255;1202;-53
2021/01/28 09:16:53;;;;;;;;;;;18.60;34.90;;;;;;469950;253;1289;-53
2021/01/28 09:18:54;;;;;;;;;;;18.50;34.80;;;;;;465346;256;1561;-54
2021/01/28 09:20:56;;;;;;;;;;;18.60;36.20;;;;;;469549;253;2184;-53
2021/01/28 09:22:57;;;;;;;;;;;18.60;36.20;;;;;;469901;253;1080;-54
2021/01/28 09:24:58;;;;;;;;;;;18.60;36.20;;;;;;465860;256;1311;-53
2021/01/28 09:27:00;;;;;;;;;;;18.60;36.20;;;;;;469921;253;1049;-54
2021/01/28 09:29:01;;;;;;;;;;;18.60;36.20;;;;;;465917;256;2147;-53
2021/01/28 09:31:02;;;;;;;;;;;18.60;36.20;;;;;;470107;253;1073;-54
2021/01/28 09:33:03;;;;;;;;;;;18.60;34.90;;;;;;466003;256;1196;-53
2021/01/28 09:35:05;;;;;;;;;;;18.60;36.20;;;;;;469984;253;1062;-54
2021/01/28 09:37:06;;;;;;;;;;;18.60;36.10;;;;;;465787;255;1233;-54
2021/01/28 09:39:07;;;;;;;;;;;18.60;36.20;;;;;;469816;253;1138;-53
2021/01/28 09:41:08;;;;;;;;;;;18.60;36.20;;;;;;465973;255;1108;-53
2021/01/28 09:43:10;;;;;;;;;;;18.60;36.20;;;;;;469936;253;1140;-54
2021/01/28 09:45:11;;;;;;;;;;;18.60;36.10;;;;;;465868;255;1052;-53
2021/01/28 09:47:12;;;;;;;;;;;18.60;36.10;;;;;;469815;253;1136;-53
2021/01/28 09:49:14;;;;;;;;;;;18.60;36.10;;;;;;465905;255;2197;-54
2021/01/28 09:51:15;;;;;;;;;;;18.60;36.10;;;;;;469708;253;1104;-53
2021/01/28 09:53:16;;;;;;;;;;;18.60;36.10;;;;;;465823;255;1229;-54
2021/01/28 09:55:18;;;;;;;;;;;18.60;36.20;;;;;;469832;253;1374;-54
2021/01/28 09:57:19;;;;;;;;;;;18.60;36.10;;;;;;465808;256;1109;-54
2021/01/28 09:59:20;;;;;;;;;;;18.60;36.10;;;;;;469886;253;1093;-53
2021/01/28 10:01:21;;;;;;;;;;;18.60;34.80;;;;;;465759;255;1073;-54
2021/01/28 10:03:24;;;;;;;;;;;18.60;36.10;;;;;;469844;253;1229;-53
2021/01/28 10:05:24;;;;;;;;;;;18.60;36.10;;;;;;465689;255;2121;-53
2021/01/28 10:07:25;;;;;;;;;;;18.60;36.10;;;;;;469785;253;1303;-53
2021/01/28 10:09:26;;;;;;;;;;;18.60;36.10;;;;;;465757;255;2130;-54
2021/01/28 10:11:28;;;;;;;;;;;18.60;36.10;;;;;;469747;253;1130;-53
2021/01/28 10:13:29;;;;;;;;;;;18.60;36.10;;;;;;465701;255;1191;-53
2021/01/28 10:15:30;;;;;;;;;;;18.60;34.80;;;;;;469810;253;1097;-54
2021/01/28 10:17:32;;;;;;;;;;;18.60;34.80;;;;;;465684;256;1132;-53
2021/01/28 10:19:33;;;;;;;;;;;18.60;36.10;;;;;;469807;253;1161;-53
2021/01/28 10:21:35;;;;;;;;;;;18.60;36.10;;;;;;465831;256;1230;-53
2021/01/28 10:23:36;;;;;;;;;;;18.60;36.10;;;;;;469963;253;1079;-53
2021/01/28 10:25:38;;;;;;;;;;;18.60;36.10;;;;;;465774;256;1232;-53
2021/01/28 10:27:39;;;;;;;;;;;18.60;34.80;;;;;;469675;253;1137;-53
2021/01/28 10:29:41;;;;;;;;;;;18.60;36.10;;;;;;465876;255;2204;-54
2021/01/28 10:31:42;;;;;;;;;;;18.60;36.10;;;;;;469953;253;1109;-53
2021/01/28 10:33:43;;;;;;;;;;;18.60;36.00;;;;;;465988;255;1076;-53
2021/01/28 10:35:46;;;;;;;;;;;18.60;36.10;;;;;;469854;253;1068;-54
2021/01/28 10:37:46;;;;;;;;;;;18.60;34.80;;;;;;465736;255;1950;-53
2021/01/28 10:39:47;;;;;;;;;;;18.60;36.10;;;;;;469855;253;1198;-53
2021/01/28 10:41:49;;;;;;;;;;;18.60;36.10;;;;;;465898;255;1134;-53
2021/01/28 10:43:50;;;;;;;;;;;18.60;34.70;;;;;;469931;253;1083;-53
2021/01/28 10:45:51;;;;;;;;;;;18.60;36.10;;;;;;465820;256;1196;-54
2021/01/28 10:47:54;;;;;;;;;;;18.60;36.10;;;;;;469888;253;1132;-54
2021/01/28 10:49:55;;;;;;;;;;;18.60;36.00;;;;;;465896;256;2270;-54
2021/01/28 10:51:57;;;;;;;;;;;18.60;36.00;;;;;;469880;253;1113;-53
2021/01/28 10:53:58;;;;;;;;;;;18.60;34.70;;;;;;465820;255;1304;-53
2021/01/28 10:55:59;;;;;;;;;;;18.60;36.00;;;;;;469906;253;1186;-53
2021/01/28 10:58:01;;;;;;;;;;;18.60;36.00;;;;;;465832;255;1188;-53
2021/01/28 11:00:02;;;;;;;;;;;18.60;36.00;;;;;;469940;253;1133;-53
2021/01/28 11:02:03;;;;;;;;;;;18.60;34.70;;;;;;466022;256;1352;-53
2021/01/28 11:04:04;;;;;;;;;;;18.60;36.00;;;;;;469849;253;1246;-54
2021/01/28 11:06:06;;;;;;;;;;;18.60;36.00;;;;;;466024;256;1191;-53
2021/01/28 11:08:07;;;;;;;;;;;18.60;36.00;;;;;;469802;253;1245;-54
2021/01/28 11:10:08;;;;;;;;;;;18.60;36.00;;;;;;465798;256;2159;-54
2021/01/28 11:12:09;;;;;;;;;;;18.60;34.70;;;;;;469857;253;1313;-53
2021/01/28 11:14:11;;;;;;;;;;;18.60;36.00;;;;;;465782;256;1347;-53
2021/01/28 11:16:12;;;;;;;;;;;18.60;36.00;;;;;;470059;253;1263;-53
2021/01/28 11:18:13;;;;;;;;;;;18.60;36.00;;;;;;465975;255;1463;-53
2021/01/28 11:20:15;;;;;;;;;;;18.60;35.90;;;;;;469832;253;1370;-53
2021/01/28 11:22:16;;;;;;;;;;;18.70;36.00;;;;;;465924;255;1257;-54
2021/01/28 11:24:17;;;;;;;;;;;18.60;35.90;;;;;;470330;253;1489;-53
2021/01/28 11:26:18;;;;;;;;;;;18.60;34.60;;;;;;465676;256;1444;-53
2021/01/28 11:28:20;;;;;;;;;;;18.60;35.90;;;;;;470037;253;1128;-54
2021/01/28 11:30:21;;;;;;;;;;;18.70;36.00;;;;;;465429;256;2216;-53
2021/01/28 11:32:22;;;;;;;;;;;18.60;35.90;;;;;;469865;253;1248;-54
2021/01/28 11:34:25;;;;;;;;;;;18.70;36.00;;;;;;465900;256;1219;-53
2021/01/28 11:36:26;;;;;;;;;;;18.70;36.00;;;;;;470137;253;1211;-54
2021/01/28 11:38:27;;;;;;;;;;;18.60;35.90;;;;;;466047;256;1220;-53
2021/01/28 11:40:29;;;;;;;;;;;18.60;35.90;;;;;;470108;253;1353;-53
2021/01/28 11:42:30;;;;;;;;;;;18.60;35.90;;;;;;466099;256;1129;-54
2021/01/28 11:44:31;;;;;;;;;;;18.60;35.90;;;;;;470138;253;1229;-53
2021/01/28 11:46:33;;;;;;;;;;;18.60;35.90;;;;;;465856;255;1133;-53
2021/01/28 11:48:34;;;;;;;;;;;18.60;35.90;;;;;;469893;253;1393;-53
2021/01/28 11:50:35;;;;;;;;;;;18.60;35.90;;;;;;465740;255;2137;-53
2021/01/28 11:52:36;;;;;;;;;;;18.60;35.90;;;;;;469839;253;1374;-53
2021/01/28 11:54:38;;;;;;;;;;;18.60;35.90;;;;;;465845;255;1285;-53
2021/01/28 11:56:39;;;;;;;;;;;18.60;35.90;;;;;;469978;253;1299;-54
2021/01/28 11:58:41;;;;;;;;;;;18.60;35.90;;;;;;465920;256;1267;-54